createdAt,value
2022-12-31T00:00:41.868Z,71.65
2022-12-31T00:03:27.386Z,72.03
2022-12-31T00:06:35.189Z,72.10
2022-12-31T00:09:20.469Z,71.98
2022-12-31T00:12:06.753Z,72.19
2022-12-31T00:14:52.258Z,71.83
2022-12-31T00:17:37.575Z,72.12
2022-12-31T00:20:22.961Z,72.59
2022-12-31T00:23:10.231Z,72.54
2022-12-31T00:25:55.760Z,72.56
2022-12-31T00:28:41.908Z,73.17
2022-12-31T00:31:33.256Z,73.59
2022-12-31T00:34:18.928Z,74.33
2022-12-31T00:37:04.512Z,74.24
2022-12-31T00:39:49.816Z,74.02
2022-12-31T00:42:35.045Z,73.29
2022-12-31T00:45:20.317Z,73.43
2022-12-31T00:48:05.940Z,72.88
2022-12-31T00:50:51.952Z,73.00
2022-12-31T00:53:38.059Z,73.33
2022-12-31T00:56:26.171Z,72.75
2022-12-31T00:59:11.449Z,72.77
2022-12-31T01:01:56.884Z,72.68
2022-12-31T01:04:42.700Z,73.04
2022-12-31T01:07:28.154Z,73.32
2022-12-31T01:10:33.501Z,73.34
2022-12-31T01:13:19.184Z,73.19
2022-12-31T01:16:13.379Z,73.34
2022-12-31T01:19:01.013Z,73.38
2022-12-31T01:21:47.698Z,73.81
2022-12-31T01:24:33.206Z,74.50
2022-12-31T01:27:18.560Z,75.21
2022-12-31T01:30:05.688Z,75.97
2022-12-31T01:32:51.109Z,76.30
2022-12-31T01:35:36.912Z,76.79
2022-12-31T01:38:22.437Z,77.46
2022-12-31T01:41:11.205Z,77.25
2022-12-31T01:44:03.026Z,77.58
2022-12-31T01:46:52.160Z,77.23
2022-12-31T01:49:52.838Z,77.31
2022-12-31T01:52:42.410Z,76.29
2022-12-31T01:55:52.764Z,76.40
2022-12-31T01:58:45.905Z,76.56
2022-12-31T02:01:32.987Z,76.75
2022-12-31T02:04:18.981Z,76.92
2022-12-31T02:07:07.049Z,76.80
2022-12-31T02:09:53.629Z,76.97
2022-12-31T02:12:40.025Z,76.98
2022-12-31T02:16:15.091Z,76.85
2022-12-31T02:19:00.442Z,76.76
2022-12-31T02:22:03.280Z,76.60
2022-12-31T02:25:06.712Z,76.56
2022-12-31T02:28:07.417Z,76.92
2022-12-31T02:31:12.105Z,76.60
2022-12-31T02:34:18.516Z,77.08
2022-12-31T02:37:08.959Z,76.09
2022-12-31T02:39:55.159Z,76.36
2022-12-31T02:42:40.689Z,76.55
2022-12-31T02:45:36.212Z,77.08
2022-12-31T02:48:58.557Z,77.16
2022-12-31T02:51:50.093Z,77.67
2022-12-31T02:54:55.660Z,77.39
2022-12-31T02:58:02.860Z,78.52
2022-12-31T03:01:14.777Z,78.90
2022-12-31T03:04:23.889Z,79.23
2022-12-31T03:07:18.254Z,79.56
2022-12-31T03:10:04.027Z,79.74
2022-12-31T03:12:49.739Z,79.39
2022-12-31T03:15:35.190Z,79.66
2022-12-31T03:18:43.355Z,79.65
2022-12-31T03:21:47.440Z,79.44
2022-12-31T03:24:51.436Z,78.98
2022-12-31T03:27:36.836Z,78.96
2022-12-31T03:30:23.216Z,78.49
2022-12-31T03:33:09.108Z,79.03
2022-12-31T03:35:54.717Z,79.23
2022-12-31T03:38:40.764Z,78.40
2022-12-31T03:41:26.522Z,77.84
2022-12-31T03:44:11.819Z,77.30
2022-12-31T03:46:57.231Z,77.56
2022-12-31T03:49:42.559Z,77.88
2022-12-31T03:52:27.867Z,77.83
2022-12-31T03:55:14.061Z,77.59
2022-12-31T03:57:59.330Z,77.75
2022-12-31T04:00:44.871Z,78.17
2022-12-31T04:03:30.055Z,77.83
2022-12-31T04:06:15.558Z,77.65
2022-12-31T04:09:00.939Z,77.88
2022-12-31T04:11:46.405Z,77.80
2022-12-31T04:14:32.454Z,78.54
2022-12-31T04:17:17.826Z,77.64
2022-12-31T04:20:03.817Z,77.89
2022-12-31T04:22:49.352Z,78.23
2022-12-31T04:25:34.623Z,78.69
2022-12-31T04:28:20.031Z,79.02
2022-12-31T04:31:05.469Z,78.85
2022-12-31T04:33:51.161Z,79.29
2022-12-31T04:36:36.580Z,79.10
2022-12-31T04:39:22.134Z,79.86
2022-12-31T04:42:08.062Z,79.82
2022-12-31T04:44:53.413Z,80.38
2022-12-31T04:47:38.868Z,80.73
2022-12-31T04:50:24.320Z,80.45
2022-12-31T04:53:09.587Z,80.87
2022-12-31T04:55:55.183Z,80.64
2022-12-31T04:58:40.841Z,80.43
2022-12-31T05:01:26.520Z,80.98
2022-12-31T05:04:12.423Z,80.74
2022-12-31T05:06:58.111Z,80.80
2022-12-31T05:09:43.512Z,80.21
2022-12-31T05:12:28.850Z,80.30
2022-12-31T05:15:14.408Z,80.22
2022-12-31T05:17:59.892Z,80.27
2022-12-31T05:20:46.317Z,80.31
2022-12-31T05:23:31.785Z,80.58
2022-12-31T05:26:17.471Z,80.24
2022-12-31T05:29:02.968Z,79.85
2022-12-31T05:31:48.248Z,80.29
2022-12-31T05:34:33.666Z,80.37
2022-12-31T05:37:18.993Z,80.76
2022-12-31T05:40:05.248Z,80.62
2022-12-31T05:42:50.852Z,80.50
2022-12-31T05:45:36.461Z,80.51
2022-12-31T05:48:22.137Z,80.93
2022-12-31T05:51:07.921Z,80.67
2022-12-31T05:53:53.514Z,80.70
2022-12-31T05:56:39.297Z,80.73
2022-12-31T05:59:24.762Z,80.24
2022-12-31T06:02:10.116Z,80.57
2022-12-31T06:04:55.567Z,80.96
2022-12-31T06:07:40.917Z,80.36
2022-12-31T06:10:26.272Z,80.78
2022-12-31T06:13:11.726Z,80.54
2022-12-31T06:15:57.183Z,80.67
2022-12-31T06:18:42.601Z,80.79
2022-12-31T06:21:29.618Z,81.49
2022-12-31T06:24:15.255Z,81.05
2022-12-31T06:27:00.506Z,81.87
2022-12-31T06:29:46.177Z,81.97
2022-12-31T06:32:31.525Z,81.96
2022-12-31T06:35:17.220Z,82.11
2022-12-31T06:38:02.665Z,82.38
2022-12-31T06:40:48.381Z,82.72
2022-12-31T06:43:38.229Z,82.88
2022-12-31T06:46:24.800Z,83.24
2022-12-31T06:49:10.673Z,83.59
2022-12-31T06:51:56.003Z,83.33
2022-12-31T06:54:41.988Z,83.26
2022-12-31T06:57:27.989Z,83.59
2022-12-31T07:00:14.323Z,83.68
2022-12-31T07:03:24.593Z,83.84
2022-12-31T07:06:16.328Z,84.00
2022-12-31T07:09:13.242Z,83.91
2022-12-31T07:12:23.217Z,84.20
2022-12-31T07:15:15.087Z,83.75
2022-12-31T07:18:16.076Z,84.03
2022-12-31T07:21:01.827Z,84.23
2022-12-31T07:23:47.759Z,84.64
2022-12-31T07:27:08.310Z,84.28
2022-12-31T07:30:15.913Z,84.36
2022-12-31T07:33:05.216Z,84.55
2022-12-31T07:36:14.631Z,84.55
2022-12-31T07:39:22.539Z,84.55
2022-12-31T07:42:57.689Z,84.55
2022-12-31T07:45:55.393Z,84.58
2022-12-31T07:48:41.581Z,84.42
2022-12-31T07:51:28.056Z,84.48
2022-12-31T07:54:14.478Z,84.73
2022-12-31T07:57:00.054Z,84.79
2022-12-31T08:00:05.644Z,84.63
2022-12-31T08:03:22.742Z,84.73
2022-12-31T08:06:17.304Z,85.01
2022-12-31T08:09:09.852Z,84.92
2022-12-31T08:11:58.359Z,85.02
2022-12-31T08:14:47.739Z,85.06
2022-12-31T08:17:34.226Z,84.62
2022-12-31T08:20:20.138Z,84.82
2022-12-31T08:23:05.475Z,84.70
2022-12-31T08:26:03.792Z,84.30
2022-12-31T08:28:55.100Z,84.27
2022-12-31T08:31:51.047Z,84.00
2022-12-31T08:34:52.019Z,83.19
2022-12-31T08:38:01.880Z,82.94
2022-12-31T08:40:59.837Z,83.66
2022-12-31T08:43:45.206Z,83.16
2022-12-31T08:47:08.532Z,82.87
2022-12-31T08:49:55.620Z,82.88
2022-12-31T08:52:41.840Z,82.43
2022-12-31T08:55:27.891Z,82.61
2022-12-31T08:58:19.641Z,82.84
2022-12-31T09:01:08.395Z,82.67
2022-12-31T09:04:11.786Z,82.83
2022-12-31T09:07:01.562Z,83.20
2022-12-31T09:10:16.503Z,83.05
2022-12-31T09:13:40.490Z,83.70
2022-12-31T09:16:37.428Z,84.83
2022-12-31T09:19:23.300Z,85.98
2022-12-31T09:22:10.912Z,87.06
2022-12-31T09:24:57.404Z,87.42
2022-12-31T09:28:05.608Z,86.19
2022-12-31T09:31:08.173Z,84.84
2022-12-31T09:34:06.765Z,83.46
2022-12-31T09:36:59.111Z,82.77
2022-12-31T09:39:48.760Z,82.65
2022-12-31T09:43:12.147Z,81.81
2022-12-31T09:46:16.203Z,80.36
2022-12-31T09:49:30.816Z,79.97
2022-12-31T09:52:35.584Z,79.39
2022-12-31T09:55:51.493Z,78.13
2022-12-31T09:58:58.255Z,77.74
2022-12-31T10:02:02.859Z,77.00
2022-12-31T10:04:48.965Z,76.59
2022-12-31T10:08:13.292Z,76.67
2022-12-31T10:11:05.799Z,76.14
2022-12-31T10:14:18.499Z,76.22
2022-12-31T10:17:22.400Z,75.84
2022-12-31T10:20:23.702Z,76.14
2022-12-31T10:23:21.402Z,76.20
2022-12-31T10:26:41.713Z,75.76
2022-12-31T10:29:47.054Z,75.54
2022-12-31T10:33:03.674Z,75.74
2022-12-31T10:36:05.233Z,75.88
2022-12-31T10:39:20.471Z,74.98
2022-12-31T10:42:40.543Z,75.34
2022-12-31T10:45:44.999Z,74.72
2022-12-31T10:49:11.172Z,74.34
2022-12-31T10:52:41.420Z,74.66
2022-12-31T10:55:45.188Z,73.92
2022-12-31T10:58:42.635Z,73.61
2022-12-31T11:01:34.228Z,73.49
2022-12-31T11:04:38.811Z,73.52
2022-12-31T11:07:39.462Z,73.20
2022-12-31T11:10:43.401Z,73.33
2022-12-31T11:13:42.587Z,73.50
2022-12-31T11:17:04.614Z,73.06
2022-12-31T11:19:59.459Z,73.26
2022-12-31T11:23:00.435Z,73.14
2022-12-31T11:26:01.299Z,72.68
2022-12-31T11:28:55.823Z,72.85
2022-12-31T11:32:11.900Z,72.28
2022-12-31T11:35:08.355Z,72.32
2022-12-31T11:38:34.995Z,71.86
2022-12-31T11:41:23.680Z,71.73
2022-12-31T11:44:32.420Z,71.56
2022-12-31T11:47:56.499Z,71.44
2022-12-31T11:51:31.617Z,71.81
2022-12-31T11:54:36.059Z,71.73
2022-12-31T11:57:32.620Z,71.49
2022-12-31T12:00:20.820Z,71.78
2022-12-31T12:03:07.487Z,71.82
2022-12-31T12:05:53.537Z,71.54
2022-12-31T12:08:40.575Z,71.75
2022-12-31T12:11:30.194Z,71.27
2022-12-31T12:14:21.693Z,71.48
2022-12-31T12:17:10.798Z,71.90
2022-12-31T12:19:59.816Z,71.49
2022-12-31T12:22:52.464Z,71.28
2022-12-31T12:25:44.127Z,71.66
2022-12-31T12:28:44.344Z,71.34
2022-12-31T12:31:30.683Z,71.48
2022-12-31T12:34:23.611Z,71.30
2022-12-31T12:37:25.127Z,71.51
2022-12-31T12:40:29.819Z,71.11
2022-12-31T12:43:23.445Z,71.52
2022-12-31T12:46:28.694Z,73.54
2022-12-31T12:49:29.712Z,74.20
2022-12-31T12:52:59.561Z,73.91
2022-12-31T12:56:05.609Z,72.65
2022-12-31T12:59:19.526Z,71.65
2022-12-31T13:02:33.262Z,70.63
2022-12-31T13:05:28.224Z,70.30
2022-12-31T13:08:30.581Z,71.01
2022-12-31T13:12:07.807Z,69.84
2022-12-31T13:15:13.688Z,69.18
2022-12-31T13:18:16.067Z,68.35
2022-12-31T13:21:31.239Z,67.21
2022-12-31T13:24:20.942Z,67.48
2022-12-31T13:27:21.007Z,66.76
2022-12-31T13:30:19.501Z,67.20
2022-12-31T13:33:15.654Z,67.10
2022-12-31T13:36:10.566Z,67.51
2022-12-31T13:38:59.774Z,68.18
2022-12-31T13:41:52.383Z,68.23
2022-12-31T13:44:46.203Z,68.33
2022-12-31T13:47:45.242Z,68.38
2022-12-31T13:50:39.661Z,68.47
2022-12-31T13:53:31.790Z,68.81
2022-12-31T13:56:27.506Z,68.59
2022-12-31T13:59:27.389Z,69.00
2022-12-31T14:02:35.821Z,68.90
2022-12-31T14:05:47.624Z,69.00
2022-12-31T14:08:33.246Z,68.89
2022-12-31T14:11:21.880Z,69.16
2022-12-31T14:14:27.582Z,69.17
2022-12-31T14:17:19.037Z,69.12
2022-12-31T14:20:40.054Z,69.36
2022-12-31T14:23:35.090Z,69.19
2022-12-31T14:26:33.109Z,69.08
2022-12-31T14:29:38.264Z,69.79
2022-12-31T14:32:48.872Z,69.39
2022-12-31T14:36:12.430Z,69.48
2022-12-31T14:39:17.266Z,69.34
2022-12-31T14:42:10.636Z,69.15
2022-12-31T14:45:14.832Z,68.98
2022-12-31T14:48:21.592Z,69.07
2022-12-31T14:51:08.288Z,68.80
2022-12-31T14:53:56.908Z,68.89
2022-12-31T14:56:45.783Z,69.15
2022-12-31T14:59:35.612Z,69.33
2022-12-31T15:02:30.430Z,69.24
2022-12-31T15:05:20.947Z,69.48
2022-12-31T15:08:28.334Z,69.61
2022-12-31T15:11:51.656Z,69.59
2022-12-31T15:14:59.275Z,69.69
2022-12-31T15:18:00.882Z,69.86
2022-12-31T15:21:28.575Z,70.12
2022-12-31T15:24:17.755Z,69.83
2022-12-31T15:27:06.414Z,70.14
2022-12-31T15:29:53.074Z,70.23
2022-12-31T15:32:46.727Z,70.38
2022-12-31T15:35:47.336Z,70.29
2022-12-31T15:38:35.306Z,70.39
2022-12-31T15:41:26.830Z,70.60
2022-12-31T15:44:23.497Z,70.34
2022-12-31T15:47:18.001Z,70.29
2022-12-31T15:50:17.478Z,70.30
2022-12-31T15:53:05.196Z,70.50
2022-12-31T15:55:54.457Z,70.40
2022-12-31T15:58:40.429Z,70.56
2022-12-31T16:01:32.597Z,70.47
2022-12-31T16:04:18.501Z,70.83
2022-12-31T16:07:04.162Z,70.79
2022-12-31T16:09:54.696Z,71.05
2022-12-31T16:12:44.644Z,70.84
2022-12-31T16:15:32.801Z,70.81
2022-12-31T16:18:22.746Z,70.91
2022-12-31T16:21:37.197Z,71.39
2022-12-31T16:24:32.618Z,71.21
2022-12-31T16:27:18.522Z,71.52
2022-12-31T16:30:29.337Z,71.14
2022-12-31T16:33:15.459Z,71.52
2022-12-31T16:36:01.763Z,71.30
2022-12-31T16:38:47.480Z,71.64
2022-12-31T16:41:43.561Z,72.12
2022-12-31T16:44:30.252Z,72.03
2022-12-31T16:47:31.152Z,72.15
2022-12-31T16:50:21.912Z,72.15
2022-12-31T16:53:08.023Z,72.44
2022-12-31T16:56:00.140Z,73.03
2022-12-31T16:58:46.019Z,72.79
2022-12-31T17:01:35.996Z,72.81
2022-12-31T17:04:23.478Z,73.02
2022-12-31T17:07:27.611Z,73.23
2022-12-31T17:10:20.635Z,73.45
2022-12-31T17:13:29.293Z,73.26
2022-12-31T17:16:18.031Z,73.40
2022-12-31T17:19:03.974Z,74.04
2022-12-31T17:21:50.541Z,73.91
2022-12-31T17:24:36.628Z,73.56
2022-12-31T17:27:23.378Z,74.17
2022-12-31T17:30:27.664Z,73.99
2022-12-31T17:33:13.375Z,74.00
2022-12-31T17:36:22.348Z,74.08
2022-12-31T17:39:19.170Z,74.13
2022-12-31T17:42:05.042Z,74.00
2022-12-31T17:44:50.727Z,73.94
2022-12-31T17:47:41.452Z,74.13
2022-12-31T17:50:28.120Z,73.99
2022-12-31T17:53:14.942Z,74.03
2022-12-31T17:56:04.778Z,73.96
2022-12-31T17:58:53.569Z,73.63
2022-12-31T18:01:39.093Z,73.28
2022-12-31T18:04:26.929Z,73.27
2022-12-31T18:07:12.365Z,72.75
2022-12-31T18:09:58.333Z,73.23
2022-12-31T18:12:45.705Z,73.33
2022-12-31T18:15:31.728Z,73.59
2022-12-31T18:18:29.303Z,73.26
2022-12-31T18:21:29.166Z,73.70
2022-12-31T18:24:25.788Z,73.19
2022-12-31T18:27:17.988Z,73.41
2022-12-31T18:30:06.844Z,73.44
2022-12-31T18:32:54.118Z,73.50
2022-12-31T18:36:07.691Z,72.93
2022-12-31T18:38:46.179Z,72.82
2022-12-31T18:41:39.731Z,73.11
2022-12-31T18:44:25.085Z,73.23
2022-12-31T18:47:19.643Z,73.00
2022-12-31T18:50:06.753Z,72.87
2022-12-31T18:52:52.560Z,73.03
2022-12-31T18:55:41.178Z,72.75
2022-12-31T18:58:26.971Z,72.76
2022-12-31T19:01:23.085Z,72.80
2022-12-31T19:04:26.540Z,72.55
2022-12-31T19:07:17.293Z,72.66
2022-12-31T19:10:03.669Z,72.59
2022-12-31T19:12:51.096Z,73.65
2022-12-31T19:15:44.441Z,72.83
2022-12-31T19:18:30.058Z,72.57
2022-12-31T19:21:22.458Z,72.93
2022-12-31T19:24:27.332Z,72.77
2022-12-31T19:27:14.167Z,72.53
2022-12-31T19:30:01.582Z,72.60
2022-12-31T19:32:47.499Z,72.88
2022-12-31T19:35:33.797Z,72.87
2022-12-31T19:38:25.653Z,73.09
2022-12-31T19:41:19.713Z,73.16
2022-12-31T19:44:05.915Z,73.48
2022-12-31T19:46:52.992Z,73.15
2022-12-31T19:49:38.858Z,73.33
2022-12-31T19:52:24.399Z,73.20
2022-12-31T19:55:13.858Z,73.33
2022-12-31T19:57:59.155Z,73.64
2022-12-31T20:00:51.594Z,73.46
2022-12-31T20:03:40.092Z,73.83
2022-12-31T20:06:25.358Z,73.63
2022-12-31T20:09:11.758Z,73.75
2022-12-31T20:11:57.578Z,74.15
2022-12-31T20:14:44.519Z,74.06
2022-12-31T20:17:30.931Z,73.92
2022-12-31T20:20:18.467Z,73.62
2022-12-31T20:23:04.317Z,73.66
2022-12-31T20:25:58.074Z,74.08
2022-12-31T20:28:43.757Z,73.76
2022-12-31T20:31:30.381Z,74.01
2022-12-31T20:34:15.842Z,73.82
2022-12-31T20:37:01.677Z,74.19
2022-12-31T20:39:47.963Z,74.29
2022-12-31T20:42:36.639Z,74.35
2022-12-31T20:45:23.796Z,74.43
2022-12-31T20:48:11.156Z,74.32
2022-12-31T20:50:58.965Z,74.55
2022-12-31T20:53:55.571Z,74.56
2022-12-31T20:56:42.193Z,74.19
2022-12-31T20:59:29.380Z,74.25
2022-12-31T21:02:29.467Z,74.17
2022-12-31T21:05:21.866Z,74.08
2022-12-31T21:08:07.589Z,74.06
2022-12-31T21:10:53.580Z,74.29
2022-12-31T21:13:40.144Z,74.01
2022-12-31T21:16:27.356Z,74.08
2022-12-31T21:19:12.841Z,73.79
2022-12-31T21:21:59.667Z,73.49
2022-12-31T21:24:48.371Z,74.01
2022-12-31T21:27:39.182Z,73.45
2022-12-31T21:30:29.155Z,74.15
2022-12-31T21:33:22.511Z,74.08
2022-12-31T21:36:14.850Z,74.24
2022-12-31T21:39:01.259Z,74.15
2022-12-31T21:41:53.109Z,74.04
2022-12-31T21:44:51.171Z,74.11
2022-12-31T21:47:56.161Z,74.24
2022-12-31T21:50:55.903Z,74.04
2022-12-31T21:53:41.772Z,74.28
2022-12-31T21:56:36.433Z,74.16
2022-12-31T21:59:46.981Z,73.83
2022-12-31T22:02:58.959Z,74.20
2022-12-31T22:05:55.640Z,74.18
2022-12-31T22:08:51.465Z,74.19
2022-12-31T22:11:40.049Z,74.05
2022-12-31T22:14:35.909Z,74.25
2022-12-31T22:17:23.094Z,74.24
2022-12-31T22:20:28.720Z,73.88
2022-12-31T22:23:22.636Z,73.97
2022-12-31T22:26:11.738Z,74.14
2022-12-31T22:29:04.301Z,74.35
2022-12-31T22:31:50.682Z,73.99
2022-12-31T22:34:36.718Z,74.12
2022-12-31T22:37:55.187Z,73.88
2022-12-31T22:40:29.091Z,74.30
2022-12-31T22:43:19.328Z,74.34
2022-12-31T22:46:17.522Z,74.13
2022-12-31T22:49:06.628Z,74.10
2022-12-31T22:52:01.744Z,74.11
2022-12-31T22:54:50.565Z,73.80
2022-12-31T22:57:36.539Z,74.35
2022-12-31T23:00:37.526Z,74.15
2022-12-31T23:03:23.290Z,74.09
2022-12-31T23:06:08.848Z,74.23
2022-12-31T23:09:13.912Z,74.03
2022-12-31T23:12:00.971Z,73.97
2022-12-31T23:15:06.329Z,73.75
2022-12-31T23:18:11.161Z,73.99
2022-12-31T23:21:16.257Z,73.98
2022-12-31T23:24:04.417Z,74.34
2022-12-31T23:26:50.469Z,73.87
2022-12-31T23:29:46.227Z,74.36
2022-12-31T23:32:33.210Z,74.25
2022-12-31T23:35:19.013Z,73.89
2022-12-31T23:38:07.855Z,74.53
2022-12-31T23:40:53.108Z,74.22
2022-12-31T23:43:39.288Z,74.41
2022-12-31T23:46:25.808Z,74.25
2022-12-31T23:49:12.353Z,73.88
2022-12-31T23:51:58.068Z,74.39
2022-12-31T23:54:43.681Z,74.37
2022-12-31T23:57:32.271Z,74.28
